sensor_id;sensor_type;location;lat;lon;timestamp;pressure;altitude;pressure_sealevel;temperature;humidity
59487;BME280;45298;54.918;73.504;2023-05-20T00:00:12;101183.66;;;10.57;47.52
59487;BME280;45298;54.918;73.504;2023-05-20T00:02:40;101192.91;;;10.26;49.29
59487;BME280;45298;54.918;73.504;2023-05-20T00:05:09;101192.31;;;9.97;49.10
59487;BME280;45298;54.918;73.504;2023-05-20T00:07:38;101194.69;;;9.83;49.56
59487;BME280;45298;54.918;73.504;2023-05-20T00:10:08;101197.75;;;9.72;49.98
59487;BME280;45298;54.918;73.504;2023-05-20T00:12:38;101205.91;;;9.67;50.21
59487;BME280;45298;54.918;73.504;2023-05-20T00:15:08;101205.28;;;9.61;50.65
59487;BME280;45298;54.918;73.504;2023-05-20T00:17:37;101201.31;;;9.49;51.42
59487;BME280;45298;54.918;73.504;2023-05-20T00:20:06;101227.31;;;9.61;51.26
59487;BME280;45298;54.918;73.504;2023-05-20T00:22:35;101205.94;;;9.44;51.55
59487;BME280;45298;54.918;73.504;2023-05-20T00:25:05;101227.94;;;9.46;52.30
59487;BME280;45298;54.918;73.504;2023-05-20T00:27:33;101226.41;;;9.38;51.87
59487;BME280;45298;54.918;73.504;2023-05-20T00:30:03;101203.06;;;9.26;51.75
59487;BME280;45298;54.918;73.504;2023-05-20T00:32:33;101236.78;;;9.45;52.13
59487;BME280;45298;54.918;73.504;2023-05-20T00:35:02;101237.41;;;9.51;52.45
59487;BME280;45298;54.918;73.504;2023-05-20T00:37:31;101222.44;;;9.50;52.66
59487;BME280;45298;54.918;73.504;2023-05-20T00:40:00;101199.81;;;9.42;51.66
59487;BME280;45298;54.918;73.504;2023-05-20T00:42:29;101225.81;;;9.54;52.35
59487;BME280;45298;54.918;73.504;2023-05-20T00:44:59;101238.63;;;9.66;52.27
59487;BME280;45298;54.918;73.504;2023-05-20T00:47:30;101212.47;;;9.57;52.40
59487;BME280;45298;54.918;73.504;2023-05-20T00:50:02;101203.16;;;9.91;51.87
59487;BME280;45298;54.918;73.504;2023-05-20T00:52:31;101208.22;;;11.22;49.16
59487;BME280;45298;54.918;73.504;2023-05-20T00:55:01;101211.66;;;12.35;46.22
59487;BME280;45298;54.918;73.504;2023-05-20T00:57:31;101219.84;;;13.17;44.17
59487;BME280;45298;54.918;73.504;2023-05-20T01:00:00;101166.25;;;13.55;43.50
59487;BME280;45298;54.918;73.504;2023-05-20T01:02:29;101241.84;;;14.33;42.08
59487;BME280;45298;54.918;73.504;2023-05-20T01:04:58;101229.94;;;14.39;41.78
59487;BME280;45298;54.918;73.504;2023-05-20T01:07:30;101235.22;;;14.85;41.45
59487;BME280;45298;54.918;73.504;2023-05-20T01:09:59;101239.72;;;15.28;40.83
59487;BME280;45298;54.918;73.504;2023-05-20T01:12:39;101243.84;;;15.76;40.25
59487;BME280;45298;54.918;73.504;2023-05-20T01:15:12;101214.53;;;16.01;39.64
59487;BME280;45298;54.918;73.504;2023-05-20T01:17:45;101229.03;;;16.52;38.73
59487;BME280;45298;54.918;73.504;2023-05-20T01:20:14;101240.47;;;16.67;38.07
59487;BME280;45298;54.918;73.504;2023-05-20T01:22:47;101217.75;;;16.47;38.12
59487;BME280;45298;54.918;73.504;2023-05-20T01:25:16;101224.84;;;16.61;38.27
59487;BME280;45298;54.918;73.504;2023-05-20T01:27:46;101240.47;;;16.67;38.17
59487;BME280;45298;54.918;73.504;2023-05-20T01:30:16;101237.91;;;16.66;37.95
59487;BME280;45298;54.918;73.504;2023-05-20T01:32:54;101209.53;;;16.10;38.43
59487;BME280;45298;54.918;73.504;2023-05-20T01:35:25;101231.03;;;16.08;38.93
59487;BME280;45298;54.918;73.504;2023-05-20T01:37:56;101230.19;;;16.08;38.96
59487;BME280;45298;54.918;73.504;2023-05-20T01:40:26;101234.69;;;16.07;39.00
59487;BME280;45298;54.918;73.504;2023-05-20T01:42:57;101226.00;;;16.04;39.36
59487;BME280;45298;54.918;73.504;2023-05-20T01:45:26;101250.13;;;16.16;39.73
59487;BME280;45298;54.918;73.504;2023-05-20T01:47:59;101226.56;;;16.09;39.34
59487;BME280;45298;54.918;73.504;2023-05-20T01:50:29;101236.06;;;16.40;39.76
59487;BME280;45298;54.918;73.504;2023-05-20T01:52:58;101235.00;;;16.43;39.08
59487;BME280;45298;54.918;73.504;2023-05-20T01:55:28;101214.25;;;16.46;39.06
59487;BME280;45298;54.918;73.504;2023-05-20T01:57:57;101225.72;;;16.21;39.51
59487;BME280;45298;54.918;73.504;2023-05-20T02:00:26;101237.38;;;16.07;39.71
59487;BME280;45298;54.918;73.504;2023-05-20T02:02:56;101236.50;;;16.07;40.37
59487;BME280;45298;54.918;73.504;2023-05-20T02:05:25;101217.41;;;15.98;40.24
59487;BME280;45298;54.918;73.504;2023-05-20T02:07:55;101225.78;;;16.07;40.35
59487;BME280;45298;54.918;73.504;2023-05-20T02:10:23;101221.31;;;16.20;39.96
59487;BME280;45298;54.918;73.504;2023-05-20T02:12:53;101222.91;;;16.50;39.58
59487;BME280;45298;54.918;73.504;2023-05-20T02:15:22;101235.78;;;16.58;39.07
59487;BME280;45298;54.918;73.504;2023-05-20T02:17:52;101246.72;;;16.68;39.42
59487;BME280;45298;54.918;73.504;2023-05-20T02:20:22;101215.00;;;16.87;38.69
59487;BME280;45298;54.918;73.504;2023-05-20T02:22:51;101221.44;;;17.11;38.11
59487;BME280;45298;54.918;73.504;2023-05-20T02:25:20;101209.97;;;16.83;38.22
59487;BME280;45298;54.918;73.504;2023-05-20T02:27:49;101210.84;;;16.96;37.94
59487;BME280;45298;54.918;73.504;2023-05-20T02:30:19;101203.63;;;17.22;38.07
59487;BME280;45298;54.918;73.504;2023-05-20T02:32:48;101223.69;;;17.30;37.82
59487;BME280;45298;54.918;73.504;2023-05-20T02:35:17;101212.09;;;17.16;37.57
59487;BME280;45298;54.918;73.504;2023-05-20T02:37:47;101214.28;;;16.98;37.61
59487;BME280;45298;54.918;73.504;2023-05-20T02:40:16;101221.78;;;17.06;37.20
59487;BME280;45298;54.918;73.504;2023-05-20T02:42:46;101226.72;;;17.12;37.40
59487;BME280;45298;54.918;73.504;2023-05-20T02:45:14;101214.16;;;17.00;37.48
59487;BME280;45298;54.918;73.504;2023-05-20T02:47:47;101220.13;;;17.16;37.52
59487;BME280;45298;54.918;73.504;2023-05-20T02:50:16;101211.81;;;17.08;36.75
59487;BME280;45298;54.918;73.504;2023-05-20T02:52:45;101166.97;;;16.84;37.67
59487;BME280;45298;54.918;73.504;2023-05-20T02:55:15;101213.75;;;17.43;36.35
59487;BME280;45298;54.918;73.504;2023-05-20T02:57:44;101225.84;;;17.62;36.51
59487;BME280;45298;54.918;73.504;2023-05-20T03:00:16;101215.31;;;17.59;36.28
59487;BME280;45298;54.918;73.504;2023-05-20T03:02:46;101200.78;;;17.37;36.15
59487;BME280;45298;54.918;73.504;2023-05-20T03:05:15;101228.16;;;17.66;36.57
59487;BME280;45298;54.918;73.504;2023-05-20T03:07:44;101230.50;;;17.84;36.13
59487;BME280;45298;54.918;73.504;2023-05-20T03:10:15;101210.53;;;17.75;35.43
59487;BME280;45298;54.918;73.504;2023-05-20T03:12:44;101223.03;;;18.01;35.08
59487;BME280;45298;54.918;73.504;2023-05-20T03:15:14;101224.28;;;18.43;34.60
59487;BME280;45298;54.918;73.504;2023-05-20T03:17:44;101210.94;;;18.31;35.10
59487;BME280;45298;54.918;73.504;2023-05-20T03:20:13;101218.63;;;18.35;34.67
59487;BME280;45298;54.918;73.504;2023-05-20T03:22:43;101214.00;;;18.26;34.38
59487;BME280;45298;54.918;73.504;2023-05-20T03:25:12;101205.69;;;18.29;33.75
59487;BME280;45298;54.918;73.504;2023-05-20T03:27:41;101211.00;;;18.18;34.20
59487;BME280;45298;54.918;73.504;2023-05-20T03:30:12;101180.88;;;18.25;33.72
59487;BME280;45298;54.918;73.504;2023-05-20T03:32:41;101181.00;;;18.60;34.03
59487;BME280;45298;54.918;73.504;2023-05-20T03:35:11;101200.19;;;18.89;33.65
59487;BME280;45298;54.918;73.504;2023-05-20T03:37:40;101187.72;;;18.77;32.64
59487;BME280;45298;54.918;73.504;2023-05-20T03:40:09;101143.50;;;18.81;33.04
59487;BME280;45298;54.918;73.504;2023-05-20T03:42:41;101142.75;;;18.79;33.08
59487;BME280;45298;54.918;73.504;2023-05-20T03:45:11;101195.81;;;19.22;33.29
59487;BME280;45298;54.918;73.504;2023-05-20T03:48:13;101177.25;;;19.30;33.26
59487;BME280;45298;54.918;73.504;2023-05-20T03:50:42;101166.19;;;19.33;32.30
59487;BME280;45298;54.918;73.504;2023-05-20T03:53:11;101181.59;;;19.43;31.81
59487;BME280;45298;54.918;73.504;2023-05-20T03:55:41;101182.56;;;19.53;31.05
59487;BME280;45298;54.918;73.504;2023-05-20T03:58:14;101159.31;;;19.52;30.42
59487;BME280;45298;54.918;73.504;2023-05-20T04:00:44;101161.69;;;19.78;30.82
59487;BME280;45298;54.918;73.504;2023-05-20T04:03:14;101173.88;;;19.93;30.53
59487;BME280;45298;54.918;73.504;2023-05-20T04:05:44;101169.84;;;20.20;30.13
59487;BME280;45298;54.918;73.504;2023-05-20T04:08:17;101167.22;;;20.51;29.55
59487;BME280;45298;54.918;73.504;2023-05-20T04:10:46;101151.56;;;20.24;28.83
59487;BME280;45298;54.918;73.504;2023-05-20T04:13:15;101152.22;;;19.84;28.67
59487;BME280;45298;54.918;73.504;2023-05-20T04:15:45;101170.28;;;20.04;29.17
59487;BME280;45298;54.918;73.504;2023-05-20T04:18:14;101112.38;;;20.10;28.78
59487;BME280;45298;54.918;73.504;2023-05-20T04:20:45;101155.59;;;20.30;28.32
59487;BME280;45298;54.918;73.504;2023-05-20T04:23:14;101149.81;;;20.13;27.85
59487;BME280;45298;54.918;73.504;2023-05-20T04:25:46;101155.72;;;20.49;28.00
59487;BME280;45298;54.918;73.504;2023-05-20T04:28:16;101173.06;;;20.57;27.68
59487;BME280;45298;54.918;73.504;2023-05-20T04:30:45;101138.22;;;20.44;27.09
59487;BME280;45298;54.918;73.504;2023-05-20T04:33:16;101155.84;;;20.48;27.39
59487;BME280;45298;54.918;73.504;2023-05-20T04:35:45;101156.81;;;20.68;27.30
59487;BME280;45298;54.918;73.504;2023-05-20T04:38:15;101148.69;;;20.89;26.17
59487;BME280;45298;54.918;73.504;2023-05-20T04:40:44;101127.22;;;21.19;26.30
59487;BME280;45298;54.918;73.504;2023-05-20T04:43:13;101100.47;;;20.96;27.21
59487;BME280;45298;54.918;73.504;2023-05-20T04:45:42;101132.28;;;21.02;26.56
59487;BME280;45298;54.918;73.504;2023-05-20T04:48:13;101127.97;;;21.31;26.83
59487;BME280;45298;54.918;73.504;2023-05-20T04:50:45;101121.56;;;21.22;26.54
59487;BME280;45298;54.918;73.504;2023-05-20T04:53:15;101117.41;;;21.18;26.02
59487;BME280;45298;54.918;73.504;2023-05-20T04:55:45;101126.97;;;21.32;25.71
59487;BME280;45298;54.918;73.504;2023-05-20T04:58:14;101146.31;;;21.47;25.24
59487;BME280;45298;54.918;73.504;2023-05-20T05:00:45;101074.84;;;21.41;25.21
59487;BME280;45298;54.918;73.504;2023-05-20T05:03:14;101120.06;;;21.78;25.34
59487;BME280;45298;54.918;73.504;2023-05-20T05:05:43;101134.84;;;21.74;25.39
59487;BME280;45298;54.918;73.504;2023-05-20T05:08:14;101116.09;;;21.63;25.79
59487;BME280;45298;54.918;73.504;2023-05-20T05:10:49;101085.78;;;21.59;25.52
59487;BME280;45298;54.918;73.504;2023-05-20T05:13:19;101104.28;;;21.73;25.49
59487;BME280;45298;54.918;73.504;2023-05-20T05:15:57;101113.25;;;22.03;25.64
59487;BME280;45298;54.918;73.504;2023-05-20T05:18:28;101097.41;;;22.18;24.59
59487;BME280;45298;54.918;73.504;2023-05-20T05:21:02;101094.56;;;22.20;25.10
59487;BME280;45298;54.918;73.504;2023-05-20T05:23:33;101115.00;;;22.32;25.06
59487;BME280;45298;54.918;73.504;2023-05-20T05:26:05;101095.16;;;22.04;24.58
59487;BME280;45298;54.918;73.504;2023-05-20T05:28:34;101103.97;;;22.16;25.60
59487;BME280;45298;54.918;73.504;2023-05-20T05:31:03;101104.41;;;22.11;25.19
59487;BME280;45298;54.918;73.504;2023-05-20T05:33:34;101107.94;;;22.12;25.25
59487;BME280;45298;54.918;73.504;2023-05-20T05:36:03;101077.75;;;22.26;25.20
59487;BME280;45298;54.918;73.504;2023-05-20T05:38:33;101052.84;;;21.85;24.75
59487;BME280;45298;54.918;73.504;2023-05-20T05:41:03;101046.13;;;21.89;24.86
59487;BME280;45298;54.918;73.504;2023-05-20T05:43:33;101091.81;;;22.49;25.31
59487;BME280;45298;54.918;73.504;2023-05-20T05:46:02;101084.53;;;22.50;24.46
59487;BME280;45298;54.918;73.504;2023-05-20T05:48:32;101042.41;;;22.10;25.09
59487;BME280;45298;54.918;73.504;2023-05-20T05:51:01;101098.78;;;22.32;25.09
59487;BME280;45298;54.918;73.504;2023-05-20T05:53:31;101051.34;;;22.20;24.94
59487;BME280;45298;54.918;73.504;2023-05-20T05:56:02;101083.44;;;22.43;24.95
59487;BME280;45298;54.918;73.504;2023-05-20T05:58:31;101074.53;;;22.13;24.90
59487;BME280;45298;54.918;73.504;2023-05-20T06:01:00;101072.03;;;21.82;25.29
59487;BME280;45298;54.918;73.504;2023-05-20T06:03:29;101073.28;;;21.97;25.78
59487;BME280;45298;54.918;73.504;2023-05-20T06:05:59;101062.69;;;22.24;26.04
59487;BME280;45298;54.918;73.504;2023-05-20T06:08:28;101090.19;;;22.57;25.74
59487;BME280;45298;54.918;73.504;2023-05-20T06:10:57;101053.56;;;22.34;25.54
59487;BME280;45298;54.918;73.504;2023-05-20T06:13:26;101065.75;;;22.58;25.65
59487;BME280;45298;54.918;73.504;2023-05-20T06:15:56;101063.63;;;22.52;26.11
59487;BME280;45298;54.918;73.504;2023-05-20T06:18:25;101044.34;;;22.65;25.45
59487;BME280;45298;54.918;73.504;2023-05-20T06:20:58;101074.72;;;22.49;25.62
59487;BME280;45298;54.918;73.504;2023-05-20T06:23:27;101058.03;;;22.63;25.83
59487;BME280;45298;54.918;73.504;2023-05-20T06:26:03;101056.94;;;22.84;26.05
59487;BME280;45298;54.918;73.504;2023-05-20T06:28:32;101042.94;;;22.89;26.49
59487;BME280;45298;54.918;73.504;2023-05-20T06:31:01;101054.47;;;22.91;25.87
59487;BME280;45298;54.918;73.504;2023-05-20T06:33:33;101044.59;;;22.72;25.77
59487;BME280;45298;54.918;73.504;2023-05-20T06:36:07;101055.53;;;22.80;25.92
59487;BME280;45298;54.918;73.504;2023-05-20T06:38:35;101056.81;;;22.76;26.11
59487;BME280;45298;54.918;73.504;2023-05-20T06:41:05;101045.94;;;22.86;25.94
59487;BME280;45298;54.918;73.504;2023-05-20T06:43:34;101023.09;;;22.98;26.07
59487;BME280;45298;54.918;73.504;2023-05-20T06:46:04;101023.38;;;22.95;25.83
59487;BME280;45298;54.918;73.504;2023-05-20T06:48:36;100986.81;;;22.73;25.22
59487;BME280;45298;54.918;73.504;2023-05-20T06:51:09;101045.91;;;22.96;25.35
59487;BME280;45298;54.918;73.504;2023-05-20T06:53:38;101050.72;;;23.02;24.88
59487;BME280;45298;54.918;73.504;2023-05-20T06:56:07;100986.38;;;22.49;25.48
59487;BME280;45298;54.918;73.504;2023-05-20T06:58:36;101020.06;;;22.83;25.29
59487;BME280;45298;54.918;73.504;2023-05-20T07:01:06;101015.75;;;22.90;25.13
59487;BME280;45298;54.918;73.504;2023-05-20T07:03:35;100968.44;;;22.94;25.57
59487;BME280;45298;54.918;73.504;2023-05-20T07:06:04;101009.53;;;23.26;24.77
59487;BME280;45298;54.918;73.504;2023-05-20T07:08:34;101029.94;;;23.38;24.90
59487;BME280;45298;54.918;73.504;2023-05-20T07:11:03;101008.00;;;23.23;24.81
59487;BME280;45298;54.918;73.504;2023-05-20T07:13:33;101017.53;;;23.18;25.07
59487;BME280;45298;54.918;73.504;2023-05-20T07:16:02;100996.25;;;23.05;25.16
59487;BME280;45298;54.918;73.504;2023-05-20T07:18:31;100955.31;;;23.00;24.58
59487;BME280;45298;54.918;73.504;2023-05-20T07:21:00;101008.06;;;23.32;24.90
59487;BME280;45298;54.918;73.504;2023-05-20T07:23:58;100993.59;;;23.41;24.51
59487;BME280;45298;54.918;73.504;2023-05-20T07:26:28;100952.13;;;22.86;24.30
59487;BME280;45298;54.918;73.504;2023-05-20T07:29:03;100991.59;;;23.43;24.53
59487;BME280;45298;54.918;73.504;2023-05-20T07:31:33;101000.78;;;23.77;23.99
59487;BME280;45298;54.918;73.504;2023-05-20T07:34:01;100994.91;;;23.81;24.52
59487;BME280;45298;54.918;73.504;2023-05-20T07:36:30;100939.28;;;23.69;23.90
59487;BME280;45298;54.918;73.504;2023-05-20T07:39:04;100980.53;;;24.07;23.45
59487;BME280;45298;54.918;73.504;2023-05-20T07:41:39;100988.38;;;24.19;24.27
59487;BME280;45298;54.918;73.504;2023-05-20T07:44:09;101006.94;;;24.40;23.80
59487;BME280;45298;54.918;73.504;2023-05-20T07:46:45;100997.66;;;24.08;24.08
59487;BME280;45298;54.918;73.504;2023-05-20T07:49:14;100976.38;;;23.95;23.78
59487;BME280;45298;54.918;73.504;2023-05-20T07:51:44;100978.91;;;24.23;23.25
59487;BME280;45298;54.918;73.504;2023-05-20T07:54:15;100961.41;;;23.82;23.92
59487;BME280;45298;54.918;73.504;2023-05-20T07:56:46;100969.09;;;23.69;23.92
59487;BME280;45298;54.918;73.504;2023-05-20T07:59:17;100975.41;;;24.04;23.53
59487;BME280;45298;54.918;73.504;2023-05-20T08:01:48;100952.28;;;24.18;23.56
59487;BME280;45298;54.918;73.504;2023-05-20T08:04:19;100955.56;;;24.30;23.63
59487;BME280;45298;54.918;73.504;2023-05-20T08:06:48;100968.28;;;24.03;23.38
59487;BME280;45298;54.918;73.504;2023-05-20T08:09:26;100958.53;;;23.84;24.22
59487;BME280;45298;54.918;73.504;2023-05-20T08:11:56;100954.59;;;24.05;23.92
59487;BME280;45298;54.918;73.504;2023-05-20T08:14:25;100948.66;;;24.44;23.31
59487;BME280;45298;54.918;73.504;2023-05-20T08:16:54;100933.13;;;24.63;23.43
59487;BME280;45298;54.918;73.504;2023-05-20T08:19:22;100957.31;;;24.48;23.51
59487;BME280;45298;54.918;73.504;2023-05-20T08:21:51;100920.75;;;24.09;23.96
59487;BME280;45298;54.918;73.504;2023-05-20T08:24:21;100928.56;;;24.12;24.25
59487;BME280;45298;54.918;73.504;2023-05-20T08:26:50;100941.72;;;24.41;23.87
59487;BME280;45298;54.918;73.504;2023-05-20T08:29:21;100938.72;;;24.18;23.76
59487;BME280;45298;54.918;73.504;2023-05-20T08:31:51;100924.66;;;24.14;24.21
59487;BME280;45298;54.918;73.504;2023-05-20T08:34:20;100927.81;;;24.36;23.93
59487;BME280;45298;54.918;73.504;2023-05-20T08:36:50;100936.75;;;24.28;24.31
59487;BME280;45298;54.918;73.504;2023-05-20T08:39:19;100930.84;;;24.33;24.76
59487;BME280;45298;54.918;73.504;2023-05-20T08:41:49;100937.84;;;24.60;24.86
59487;BME280;45298;54.918;73.504;2023-05-20T08:44:20;100914.19;;;24.71;24.48
59487;BME280;45298;54.918;73.504;2023-05-20T08:46:51;100907.16;;;24.52;24.03
59487;BME280;45298;54.918;73.504;2023-05-20T08:49:20;100910.53;;;24.37;24.21
59487;BME280;45298;54.918;73.504;2023-05-20T08:51:49;100921.06;;;24.06;24.04
59487;BME280;45298;54.918;73.504;2023-05-20T08:54:19;100916.53;;;24.14;24.41
59487;BME280;45298;54.918;73.504;2023-05-20T08:56:51;100903.94;;;23.97;23.99
59487;BME280;45298;54.918;73.504;2023-05-20T08:59:21;100903.63;;;24.08;23.96
59487;BME280;45298;54.918;73.504;2023-05-20T09:01:50;100906.66;;;24.05;24.58
59487;BME280;45298;54.918;73.504;2023-05-20T09:04:19;100864.06;;;23.89;24.24
59487;BME280;45298;54.918;73.504;2023-05-20T09:06:49;100894.34;;;24.11;24.00
59487;BME280;45298;54.918;73.504;2023-05-20T09:09:19;100906.78;;;24.38;23.32
59487;BME280;45298;54.918;73.504;2023-05-20T09:11:48;100912.03;;;24.32;23.69
59487;BME280;45298;54.918;73.504;2023-05-20T09:14:17;100901.50;;;23.94;23.69
59487;BME280;45298;54.918;73.504;2023-05-20T09:16:49;100908.38;;;23.80;24.08
59487;BME280;45298;54.918;73.504;2023-05-20T09:19:21;100909.59;;;23.85;24.43
59487;BME280;45298;54.918;73.504;2023-05-20T09:21:53;100883.56;;;23.93;24.30
59487;BME280;45298;54.918;73.504;2023-05-20T09:24:23;100924.16;;;24.11;23.46
59487;BME280;45298;54.918;73.504;2023-05-20T09:26:53;100913.78;;;24.06;23.57
59487;BME280;45298;54.918;73.504;2023-05-20T09:29:22;100905.66;;;24.06;23.63
59487;BME280;45298;54.918;73.504;2023-05-20T09:31:51;100913.44;;;24.01;23.68
59487;BME280;45298;54.918;73.504;2023-05-20T09:34:20;100907.72;;;24.12;23.82
59487;BME280;45298;54.918;73.504;2023-05-20T09:36:49;100905.72;;;24.23;24.28
59487;BME280;45298;54.918;73.504;2023-05-20T09:39:23;100919.25;;;24.23;23.75
59487;BME280;45298;54.918;73.504;2023-05-20T09:42:11;100904.91;;;23.96;23.72
59487;BME280;45298;54.918;73.504;2023-05-20T09:44:44;100900.59;;;24.11;23.74
59487;BME280;45298;54.918;73.504;2023-05-20T09:47:15;100898.94;;;24.19;23.80
59487;BME280;45298;54.918;73.504;2023-05-20T09:49:45;100900.91;;;24.08;23.78
59487;BME280;45298;54.918;73.504;2023-05-20T09:52:18;100849.78;;;23.71;23.81
59487;BME280;45298;54.918;73.504;2023-05-20T09:54:48;100903.03;;;23.96;23.82
59487;BME280;45298;54.918;73.504;2023-05-20T09:57:21;100890.84;;;23.58;23.92
59487;BME280;45298;54.918;73.504;2023-05-20T09:59:50;100846.34;;;23.16;24.18
59487;BME280;45298;54.918;73.504;2023-05-20T10:02:20;100881.75;;;23.41;23.96
59487;BME280;45298;54.918;73.504;2023-05-20T10:04:51;100873.38;;;23.52;24.53
59487;BME280;45298;54.918;73.504;2023-05-20T10:10:41;100883.97;;;23.98;24.26
59487;BME280;45298;54.918;73.504;2023-05-20T10:19:36;100855.34;;;23.69;25.03
59487;BME280;45298;54.918;73.504;2023-05-20T10:22:07;100859.44;;;23.73;24.56
59487;BME280;45298;54.918;73.504;2023-05-20T10:24:39;100861.00;;;23.84;24.32
59487;BME280;45298;54.918;73.504;2023-05-20T10:27:10;100869.81;;;23.86;24.92
59487;BME280;45298;54.918;73.504;2023-05-20T10:34:58;100888.66;;;23.35;24.52
59487;BME280;45298;54.918;73.504;2023-05-20T10:37:38;100859.66;;;23.53;24.99
59487;BME280;45298;54.918;73.504;2023-05-20T10:40:09;100887.69;;;23.97;24.51
59487;BME280;45298;54.918;73.504;2023-05-20T10:42:39;100866.28;;;23.94;23.89
59487;BME280;45298;54.918;73.504;2023-05-20T10:45:10;100856.41;;;23.76;23.64
59487;BME280;45298;54.918;73.504;2023-05-20T10:47:54;100860.44;;;23.72;24.01
59487;BME280;45298;54.918;73.504;2023-05-20T10:50:32;100854.38;;;23.78;24.52
59487;BME280;45298;54.918;73.504;2023-05-20T10:53:06;100867.81;;;23.88;24.01
59487;BME280;45298;54.918;73.504;2023-05-20T10:55:53;100855.72;;;23.74;24.09
59487;BME280;45298;54.918;73.504;2023-05-20T10:58:23;100851.34;;;23.81;23.79
59487;BME280;45298;54.918;73.504;2023-05-20T11:00:56;100845.81;;;23.91;24.02
59487;BME280;45298;54.918;73.504;2023-05-20T11:03:25;100842.59;;;23.96;23.56
59487;BME280;45298;54.918;73.504;2023-05-20T11:05:54;100799.16;;;23.71;23.10
59487;BME280;45298;54.918;73.504;2023-05-20T11:08:29;100837.91;;;23.98;23.00
59487;BME280;45298;54.918;73.504;2023-05-20T11:11:02;100801.72;;;23.81;22.52
59487;BME280;45298;54.918;73.504;2023-05-20T11:13:31;100852.56;;;23.95;22.28
59487;BME280;45298;54.918;73.504;2023-05-20T11:16:01;100839.84;;;23.88;22.04
59487;BME280;45298;54.918;73.504;2023-05-20T11:18:33;100835.56;;;23.77;22.17
59487;BME280;45298;54.918;73.504;2023-05-20T11:21:03;100798.34;;;23.44;22.46
59487;BME280;45298;54.918;73.504;2023-05-20T11:23:32;100849.66;;;23.80;22.66
59487;BME280;45298;54.918;73.504;2023-05-20T11:26:01;100841.34;;;23.82;22.85
59487;BME280;45298;54.918;73.504;2023-05-20T11:28:30;100821.00;;;23.69;23.06
59487;BME280;45298;54.918;73.504;2023-05-20T11:31:03;100829.63;;;23.73;23.26
59487;BME280;45298;54.918;73.504;2023-05-20T11:33:33;100839.91;;;23.61;23.55
59487;BME280;45298;54.918;73.504;2023-05-20T11:36:01;100832.00;;;23.42;23.38
59487;BME280;45298;54.918;73.504;2023-05-20T11:38:45;100852.38;;;23.28;23.69
59487;BME280;45298;54.918;73.504;2023-05-20T11:41:15;100859.03;;;22.89;24.04
59487;BME280;45298;54.918;73.504;2023-05-20T11:43:43;100853.91;;;22.68;24.14
59487;BME280;45298;54.918;73.504;2023-05-20T11:46:13;100837.75;;;22.40;24.38
59487;BME280;45298;54.918;73.504;2023-05-20T11:48:51;100777.41;;;21.85;24.63
59487;BME280;45298;54.918;73.504;2023-05-20T11:51:26;100843.44;;;22.18;24.56
59487;BME280;45298;54.918;73.504;2023-05-20T11:54:02;100834.50;;;22.18;24.21
59487;BME280;45298;54.918;73.504;2023-05-20T11:56:37;100839.97;;;22.26;24.10
59487;BME280;45298;54.918;73.504;2023-05-20T11:59:08;100853.09;;;22.39;24.04
59487;BME280;45298;54.918;73.504;2023-05-20T12:01:42;100821.84;;;22.37;23.69
59487;BME280;45298;54.918;73.504;2023-05-20T12:04:14;100827.03;;;22.48;23.99
59487;BME280;45298;54.918;73.504;2023-05-20T12:06:45;100826.13;;;22.57;23.73
59487;BME280;45298;54.918;73.504;2023-05-20T12:09:16;100845.28;;;22.64;23.68
59487;BME280;45298;54.918;73.504;2023-05-20T12:11:45;100847.22;;;22.54;23.96
59487;BME280;45298;54.918;73.504;2023-05-20T12:14:14;100846.56;;;22.42;23.87
59487;BME280;45298;54.918;73.504;2023-05-20T12:16:44;100830.56;;;22.30;23.55
59487;BME280;45298;54.918;73.504;2023-05-20T12:19:12;100832.78;;;22.17;23.80
59487;BME280;45298;54.918;73.504;2023-05-20T12:21:41;100831.31;;;22.04;23.93
59487;BME280;45298;54.918;73.504;2023-05-20T12:24:10;100848.84;;;22.18;23.93
59487;BME280;45298;54.918;73.504;2023-05-20T12:26:39;100839.59;;;22.21;23.74
59487;BME280;45298;54.918;73.504;2023-05-20T12:29:09;100841.53;;;22.29;24.16
59487;BME280;45298;54.918;73.504;2023-05-20T12:31:39;100818.97;;;22.20;23.85
59487;BME280;45298;54.918;73.504;2023-05-20T12:34:11;100815.56;;;22.18;23.69
59487;BME280;45298;54.918;73.504;2023-05-20T12:36:40;100842.28;;;22.39;23.31
59487;BME280;45298;54.918;73.504;2023-05-20T12:39:09;100836.03;;;22.21;23.74
59487;BME280;45298;54.918;73.504;2023-05-20T12:41:39;100844.00;;;22.22;23.86
59487;BME280;45298;54.918;73.504;2023-05-20T12:44:09;100838.25;;;22.07;24.02
59487;BME280;45298;54.918;73.504;2023-05-20T12:46:38;100859.44;;;22.02;24.04
59487;BME280;45298;54.918;73.504;2023-05-20T12:49:08;100844.00;;;21.94;24.08
59487;BME280;45298;54.918;73.504;2023-05-20T12:51:37;100844.75;;;21.86;24.16
59487;BME280;45298;54.918;73.504;2023-05-20T12:54:06;100858.50;;;21.93;24.39
59487;BME280;45298;54.918;73.504;2023-05-20T12:56:37;100845.22;;;21.82;24.75
59487;BME280;45298;54.918;73.504;2023-05-20T12:59:06;100801.25;;;21.52;24.45
59487;BME280;45298;54.918;73.504;2023-05-20T13:01:35;100853.44;;;21.80;24.26
59487;BME280;45298;54.918;73.504;2023-05-20T13:04:05;100816.03;;;21.48;24.46
59487;BME280;45298;54.918;73.504;2023-05-20T13:06:35;100834.06;;;21.57;24.74
59487;BME280;45298;54.918;73.504;2023-05-20T13:09:04;100845.13;;;21.54;24.55
59487;BME280;45298;54.918;73.504;2023-05-20T13:11:33;100849.13;;;21.50;24.39